sensor_id;sensor_type;location;lat;lon;timestamp;P1;durP1;ratioP1;P2;durP2;ratioP2
58597;SDS011;60319;46.908;16.848;2022-07-29T00:02:03;5.72;;;5.18;;
58597;SDS011;60319;46.908;16.848;2022-07-29T00:07:03;4.85;;;4.45;;
58597;SDS011;60319;46.908;16.848;2022-07-29T00:12:04;5.80;;;4.75;;
58597;SDS011;60319;46.908;16.848;2022-07-29T00:17:05;5.68;;;4.93;;
58597;SDS011;60319;46.908;16.848;2022-07-29T00:22:06;6.50;;;4.88;;
58597;SDS011;60319;46.908;16.848;2022-07-29T00:27:06;6.18;;;5.38;;
58597;SDS011;60319;46.908;16.848;2022-07-29T00:32:07;5.32;;;4.93;;
58597;SDS011;60319;46.908;16.848;2022-07-29T00:37:07;5.35;;;4.82;;
58597;SDS011;60319;46.908;16.848;2022-07-29T00:42:08;5.60;;;5.00;;
58597;SDS011;60319;46.908;16.848;2022-07-29T00:47:10;5.30;;;4.60;;
58597;SDS011;60319;46.908;16.848;2022-07-29T00:52:11;4.53;;;4.15;;
58597;SDS011;60319;46.908;16.848;2022-07-29T00:57:12;5.45;;;4.82;;
58597;SDS011;60319;46.908;16.848;2022-07-29T01:02:13;5.45;;;5.00;;
58597;SDS011;60319;46.908;16.848;2022-07-29T01:07:13;5.68;;;5.10;;
58597;SDS011;60319;46.908;16.848;2022-07-29T01:12:16;5.88;;;5.15;;
58597;SDS011;60319;46.908;16.848;2022-07-29T01:33:39;5.22;;;4.80;;
58597;SDS011;60319;46.908;16.848;2022-07-29T01:38:54;6.03;;;5.53;;
58597;SDS011;60319;46.908;16.848;2022-07-29T01:44:01;5.07;;;4.20;;
58597;SDS011;60319;46.908;16.848;2022-07-29T01:49:11;4.78;;;4.38;;
58597;SDS011;60319;46.908;16.848;2022-07-29T01:59:21;4.85;;;4.55;;
58597;SDS011;60319;46.908;16.848;2022-07-29T02:04:24;5.30;;;4.80;;
58597;SDS011;60319;46.908;16.848;2022-07-29T02:09:27;5.15;;;4.75;;
58597;SDS011;60319;46.908;16.848;2022-07-29T02:14:31;4.93;;;4.57;;
58597;SDS011;60319;46.908;16.848;2022-07-29T02:19:36;5.23;;;4.83;;
58597;SDS011;60319;46.908;16.848;2022-07-29T02:24:38;4.80;;;4.50;;
58597;SDS011;60319;46.908;16.848;2022-07-29T02:29:40;5.72;;;5.32;;
58597;SDS011;60319;46.908;16.848;2022-07-29T02:34:41;5.43;;;4.93;;
58597;SDS011;60319;46.908;16.848;2022-07-29T02:39:43;4.93;;;4.53;;
58597;SDS011;60319;46.908;16.848;2022-07-29T02:44:45;6.15;;;4.80;;
58597;SDS011;60319;46.908;16.848;2022-07-29T02:49:53;5.15;;;4.75;;
58597;SDS011;60319;46.908;16.848;2022-07-29T02:55:01;4.63;;;4.22;;
58597;SDS011;60319;46.908;16.848;2022-07-29T03:00:29;5.10;;;4.70;;
58597;SDS011;60319;46.908;16.848;2022-07-29T03:05:34;5.40;;;5.00;;
58597;SDS011;60319;46.908;16.848;2022-07-29T03:10:35;5.25;;;4.75;;
58597;SDS011;60319;46.908;16.848;2022-07-29T03:15:38;5.60;;;5.10;;
58597;SDS011;60319;46.908;16.848;2022-07-29T03:20:39;5.68;;;5.22;;
58597;SDS011;60319;46.908;16.848;2022-07-29T03:25:40;5.68;;;5.18;;
58597;SDS011;60319;46.908;16.848;2022-07-29T03:30:41;5.38;;;4.97;;
58597;SDS011;60319;46.908;16.848;2022-07-29T03:35:41;5.60;;;5.07;;
58597;SDS011;60319;46.908;16.848;2022-07-29T03:40:49;6.30;;;5.60;;
58597;SDS011;60319;46.908;16.848;2022-07-29T03:45:57;5.40;;;4.90;;
58597;SDS011;60319;46.908;16.848;2022-07-29T03:51:00;5.35;;;4.90;;
58597;SDS011;60319;46.908;16.848;2022-07-29T03:56:00;5.70;;;5.28;;
58597;SDS011;60319;46.908;16.848;2022-07-29T04:01:03;5.97;;;5.00;;
58597;SDS011;60319;46.908;16.848;2022-07-29T04:06:05;5.00;;;4.60;;
58597;SDS011;60319;46.908;16.848;2022-07-29T04:11:06;5.70;;;5.30;;
58597;SDS011;60319;46.908;16.848;2022-07-29T04:16:07;6.13;;;5.65;;
58597;SDS011;60319;46.908;16.848;2022-07-29T04:21:07;6.43;;;5.82;;
58597;SDS011;60319;46.908;16.848;2022-07-29T04:26:08;6.70;;;5.50;;
58597;SDS011;60319;46.908;16.848;2022-07-29T04:31:11;6.22;;;5.72;;
58597;SDS011;60319;46.908;16.848;2022-07-29T04:36:12;5.57;;;5.07;;
58597;SDS011;60319;46.908;16.848;2022-07-29T04:41:12;6.10;;;5.53;;
58597;SDS011;60319;46.908;16.848;2022-07-29T04:46:13;5.47;;;5.07;;
58597;SDS011;60319;46.908;16.848;2022-07-29T04:51:14;5.50;;;5.10;;
58597;SDS011;60319;46.908;16.848;2022-07-29T04:56:15;4.22;;;3.92;;
58597;SDS011;60319;46.908;16.848;2022-07-29T05:01:15;5.43;;;5.03;;
58597;SDS011;60319;46.908;16.848;2022-07-29T05:06:16;5.70;;;5.00;;
58597;SDS011;60319;46.908;16.848;2022-07-29T05:11:17;5.32;;;4.90;;
58597;SDS011;60319;46.908;16.848;2022-07-29T05:16:17;5.95;;;4.72;;
58597;SDS011;60319;46.908;16.848;2022-07-29T05:21:18;5.00;;;4.60;;
58597;SDS011;60319;46.908;16.848;2022-07-29T05:26:18;4.75;;;4.40;;
58597;SDS011;60319;46.908;16.848;2022-07-29T05:31:19;4.22;;;3.92;;
58597;SDS011;60319;46.908;16.848;2022-07-29T05:36:19;4.85;;;4.40;;
58597;SDS011;60319;46.908;16.848;2022-07-29T05:41:20;4.68;;;4.38;;
58597;SDS011;60319;46.908;16.848;2022-07-29T05:46:21;4.70;;;4.30;;
58597;SDS011;60319;46.908;16.848;2022-07-29T05:51:21;5.30;;;4.63;;
58597;SDS011;60319;46.908;16.848;2022-07-29T05:56:22;4.75;;;4.35;;
58597;SDS011;60319;46.908;16.848;2022-07-29T06:01:23;5.07;;;4.68;;
58597;SDS011;60319;46.908;16.848;2022-07-29T06:06:23;6.20;;;5.13;;
58597;SDS011;60319;46.908;16.848;2022-07-29T06:11:24;4.60;;;4.20;;
58597;SDS011;60319;46.908;16.848;2022-07-29T06:16:24;4.20;;;3.90;;
58597;SDS011;60319;46.908;16.848;2022-07-29T06:21:25;5.28;;;4.80;;
58597;SDS011;60319;46.908;16.848;2022-07-29T06:26:25;5.38;;;4.97;;
58597;SDS011;60319;46.908;16.848;2022-07-29T06:31:26;4.45;;;3.88;;
58597;SDS011;60319;46.908;16.848;2022-07-29T06:36:26;4.63;;;4.10;;
58597;SDS011;60319;46.908;16.848;2022-07-29T06:41:27;4.03;;;3.72;;
58597;SDS011;60319;46.908;16.848;2022-07-29T06:46:27;4.15;;;3.67;;
58597;SDS011;60319;46.908;16.848;2022-07-29T06:51:28;5.70;;;4.38;;
58597;SDS011;60319;46.908;16.848;2022-07-29T06:56:33;4.45;;;4.05;;
58597;SDS011;60319;46.908;16.848;2022-07-29T07:01:38;6.93;;;4.30;;
58597;SDS011;60319;46.908;16.848;2022-07-29T07:06:41;9.85;;;4.05;;
58597;SDS011;60319;46.908;16.848;2022-07-29T07:11:41;4.60;;;4.20;;
58597;SDS011;60319;46.908;16.848;2022-07-29T07:16:41;4.75;;;3.97;;
58597;SDS011;60319;46.908;16.848;2022-07-29T07:21:42;4.55;;;4.07;;
58597;SDS011;60319;46.908;16.848;2022-07-29T07:26:42;4.35;;;4.05;;
58597;SDS011;60319;46.908;16.848;2022-07-29T07:31:43;4.88;;;4.10;;
58597;SDS011;60319;46.908;16.848;2022-07-29T07:36:43;3.97;;;3.65;;
58597;SDS011;60319;46.908;16.848;2022-07-29T07:41:44;4.32;;;3.85;;
58597;SDS011;60319;46.908;16.848;2022-07-29T07:46:44;4.47;;;4.00;;
58597;SDS011;60319;46.908;16.848;2022-07-29T07:51:45;4.35;;;4.05;;
58597;SDS011;60319;46.908;16.848;2022-07-29T07:56:46;5.28;;;4.78;;
58597;SDS011;60319;46.908;16.848;2022-07-29T08:01:49;4.18;;;3.72;;
58597;SDS011;60319;46.908;16.848;2022-07-29T08:06:50;3.90;;;3.60;;
58597;SDS011;60319;46.908;16.848;2022-07-29T08:11:51;4.28;;;3.90;;
58597;SDS011;60319;46.908;16.848;2022-07-29T08:16:52;4.22;;;3.92;;
58597;SDS011;60319;46.908;16.848;2022-07-29T08:21:52;4.53;;;4.22;;
58597;SDS011;60319;46.908;16.848;2022-07-29T08:26:53;4.22;;;3.83;;
58597;SDS011;60319;46.908;16.848;2022-07-29T08:31:53;4.00;;;3.70;;
58597;SDS011;60319;46.908;16.848;2022-07-29T08:36:54;4.00;;;3.65;;
58597;SDS011;60319;46.908;16.848;2022-07-29T08:41:56;4.20;;;3.90;;
58597;SDS011;60319;46.908;16.848;2022-07-29T08:46:57;4.50;;;4.10;;
58597;SDS011;60319;46.908;16.848;2022-07-29T08:51:57;4.38;;;3.97;;
58597;SDS011;60319;46.908;16.848;2022-07-29T08:57:00;4.10;;;3.70;;
58597;SDS011;60319;46.908;16.848;2022-07-29T09:02:01;5.53;;;4.20;;
58597;SDS011;60319;46.908;16.848;2022-07-29T09:07:04;4.70;;;4.30;;
58597;SDS011;60319;46.908;16.848;2022-07-29T09:12:05;4.78;;;4.18;;
58597;SDS011;60319;46.908;16.848;2022-07-29T09:17:08;5.93;;;4.68;;
58597;SDS011;60319;46.908;16.848;2022-07-29T09:22:09;5.70;;;4.10;;
58597;SDS011;60319;46.908;16.848;2022-07-29T09:32:21;4.60;;;4.20;;
58597;SDS011;60319;46.908;16.848;2022-07-29T09:37:28;4.18;;;3.88;;
58597;SDS011;60319;46.908;16.848;2022-07-29T09:42:30;4.35;;;3.95;;
58597;SDS011;60319;46.908;16.848;2022-07-29T09:47:40;4.00;;;3.70;;
58597;SDS011;60319;46.908;16.848;2022-07-29T09:52:46;4.68;;;3.97;;
58597;SDS011;60319;46.908;16.848;2022-07-29T09:57:48;4.45;;;4.15;;
58597;SDS011;60319;46.908;16.848;2022-07-29T10:02:48;6.70;;;4.05;;
58597;SDS011;60319;46.908;16.848;2022-07-29T10:07:51;3.78;;;3.42;;
58597;SDS011;60319;46.908;16.848;2022-07-29T10:12:58;4.75;;;4.20;;
58597;SDS011;60319;46.908;16.848;2022-07-29T10:18:03;4.85;;;4.43;;
58597;SDS011;60319;46.908;16.848;2022-07-29T10:23:04;5.22;;;4.50;;
58597;SDS011;60319;46.908;16.848;2022-07-29T10:28:05;4.43;;;4.03;;
58597;SDS011;60319;46.908;16.848;2022-07-29T10:43:31;4.28;;;3.88;;
58597;SDS011;60319;46.908;16.848;2022-07-29T10:48:44;3.97;;;3.63;;
58597;SDS011;60319;46.908;16.848;2022-07-29T10:54:18;4.07;;;3.72;;
58597;SDS011;60319;46.908;16.848;2022-07-29T10:59:36;3.90;;;3.58;;
58597;SDS011;60319;46.908;16.848;2022-07-29T11:10:19;4.25;;;3.95;;
58597;SDS011;60319;46.908;16.848;2022-07-29T11:15:26;4.38;;;4.00;;
58597;SDS011;60319;46.908;16.848;2022-07-29T11:20:31;4.00;;;3.70;;
58597;SDS011;60319;46.908;16.848;2022-07-29T11:25:45;4.80;;;4.15;;
58597;SDS011;60319;46.908;16.848;2022-07-29T11:31:06;4.82;;;3.60;;
58597;SDS011;60319;46.908;16.848;2022-07-29T11:36:11;4.68;;;3.92;;
58597;SDS011;60319;46.908;16.848;2022-07-29T11:51:52;4.20;;;3.90;;
58597;SDS011;60319;46.908;16.848;2022-07-29T11:56:53;4.63;;;4.22;;
58597;SDS011;60319;46.908;16.848;2022-07-29T12:01:55;4.45;;;4.05;;
58597;SDS011;60319;46.908;16.848;2022-07-29T12:06:56;4.68;;;4.28;;
58597;SDS011;60319;46.908;16.848;2022-07-29T12:11:57;4.70;;;4.25;;
58597;SDS011;60319;46.908;16.848;2022-07-29T12:16:59;4.97;;;4.38;;
58597;SDS011;60319;46.908;16.848;2022-07-29T12:22:00;4.40;;;3.80;;
58597;SDS011;60319;46.908;16.848;2022-07-29T12:27:01;3.90;;;3.60;;
58597;SDS011;60319;46.908;16.848;2022-07-29T12:32:01;4.22;;;3.65;;
58597;SDS011;60319;46.908;16.848;2022-07-29T12:37:03;3.75;;;3.45;;
58597;SDS011;60319;46.908;16.848;2022-07-29T12:42:11;4.03;;;3.38;;
58597;SDS011;60319;46.908;16.848;2022-07-29T12:47:12;3.65;;;3.35;;
58597;SDS011;60319;46.908;16.848;2022-07-29T12:52:23;5.18;;;4.03;;
58597;SDS011;60319;46.908;16.848;2022-07-29T12:57:27;4.45;;;4.00;;
58597;SDS011;60319;46.908;16.848;2022-07-29T13:02:28;4.53;;;4.13;;
58597;SDS011;60319;46.908;16.848;2022-07-29T13:07:29;4.15;;;3.75;;
58597;SDS011;60319;46.908;16.848;2022-07-29T13:12:32;4.03;;;3.72;;
58597;SDS011;60319;46.908;16.848;2022-07-29T13:17:32;4.50;;;4.10;;
58597;SDS011;60319;46.908;16.848;2022-07-29T13:22:42;6.78;;;3.67;;
58597;SDS011;60319;46.908;16.848;2022-07-29T13:27:47;4.47;;;4.07;;
58597;SDS011;60319;46.908;16.848;2022-07-29T13:32:48;4.50;;;3.60;;
58597;SDS011;60319;46.908;16.848;2022-07-29T13:37:49;4.38;;;3.55;;
58597;SDS011;60319;46.908;16.848;2022-07-29T13:42:50;3.95;;;3.55;;
58597;SDS011;60319;46.908;16.848;2022-07-29T13:47:50;3.95;;;3.55;;
58597;SDS011;60319;46.908;16.848;2022-07-29T13:52:51;4.40;;;4.00;;
58597;SDS011;60319;46.908;16.848;2022-07-29T13:57:51;4.57;;;4.18;;
58597;SDS011;60319;46.908;16.848;2022-07-29T14:02:52;4.15;;;3.83;;
58597;SDS011;60319;46.908;16.848;2022-07-29T14:07:52;4.15;;;3.75;;
58597;SDS011;60319;46.908;16.848;2022-07-29T14:12:53;4.40;;;4.00;;
58597;SDS011;60319;46.908;16.848;2022-07-29T14:17:53;4.68;;;4.28;;
58597;SDS011;60319;46.908;16.848;2022-07-29T14:22:54;5.65;;;4.05;;
58597;SDS011;60319;46.908;16.848;2022-07-29T14:27:54;6.55;;;3.85;;
58597;SDS011;60319;46.908;16.848;2022-07-29T14:32:55;4.35;;;3.70;;
58597;SDS011;60319;46.908;16.848;2022-07-29T14:37:55;4.45;;;4.05;;
58597;SDS011;60319;46.908;16.848;2022-07-29T14:42:57;4.10;;;3.80;;
58597;SDS011;60319;46.908;16.848;2022-07-29T14:47:57;5.78;;;4.00;;
58597;SDS011;60319;46.908;16.848;2022-07-29T14:53:01;4.00;;;3.63;;
58597;SDS011;60319;46.908;16.848;2022-07-29T14:58:01;4.28;;;3.88;;
58597;SDS011;60319;46.908;16.848;2022-07-29T15:03:02;4.47;;;3.42;;
58597;SDS011;60319;46.908;16.848;2022-07-29T15:08:03;4.07;;;3.67;;
58597;SDS011;60319;46.908;16.848;2022-07-29T15:13:03;4.25;;;3.90;;
58597;SDS011;60319;46.908;16.848;2022-07-29T15:18:04;3.88;;;3.58;;
58597;SDS011;60319;46.908;16.848;2022-07-29T15:23:05;4.35;;;3.92;;
58597;SDS011;60319;46.908;16.848;2022-07-29T15:28:09;4.45;;;4.05;;
58597;SDS011;60319;46.908;16.848;2022-07-29T15:33:09;4.50;;;4.05;;
58597;SDS011;60319;46.908;16.848;2022-07-29T15:38:10;4.88;;;3.80;;
58597;SDS011;60319;46.908;16.848;2022-07-29T15:43:11;4.03;;;3.72;;
58597;SDS011;60319;46.908;16.848;2022-07-29T15:48:11;4.50;;;4.07;;
58597;SDS011;60319;46.908;16.848;2022-07-29T15:53:12;4.18;;;3.88;;
58597;SDS011;60319;46.908;16.848;2022-07-29T15:58:13;4.00;;;3.60;;
58597;SDS011;60319;46.908;16.848;2022-07-29T16:03:13;5.00;;;4.00;;
58597;SDS011;60319;46.908;16.848;2022-07-29T16:08:15;4.25;;;3.88;;
58597;SDS011;60319;46.908;16.848;2022-07-29T16:13:15;4.82;;;4.32;;
58597;SDS011;60319;46.908;16.848;2022-07-29T16:18:16;4.00;;;3.67;;
58597;SDS011;60319;46.908;16.848;2022-07-29T16:23:16;5.88;;;3.72;;
58597;SDS011;60319;46.908;16.848;2022-07-29T16:28:17;5.38;;;3.97;;
58597;SDS011;60319;46.908;16.848;2022-07-29T16:33:20;4.43;;;3.88;;
58597;SDS011;60319;46.908;16.848;2022-07-29T16:38:21;4.03;;;3.70;;
58597;SDS011;60319;46.908;16.848;2022-07-29T16:43:22;3.55;;;3.25;;
58597;SDS011;60319;46.908;16.848;2022-07-29T16:48:22;8.73;;;4.20;;
58597;SDS011;60319;46.908;16.848;2022-07-29T16:53:23;4.30;;;3.90;;
58597;SDS011;60319;46.908;16.848;2022-07-29T16:58:24;6.75;;;3.95;;
58597;SDS011;60319;46.908;16.848;2022-07-29T17:03:24;4.47;;;4.05;;
58597;SDS011;60319;46.908;16.848;2022-07-29T17:08:25;4.03;;;3.72;;
58597;SDS011;60319;46.908;16.848;2022-07-29T17:13:25;4.38;;;3.97;;
58597;SDS011;60319;46.908;16.848;2022-07-29T17:18:26;6.50;;;4.30;;
58597;SDS011;60319;46.908;16.848;2022-07-29T17:23:27;4.65;;;3.75;;
58597;SDS011;60319;46.908;16.848;2022-07-29T17:28:28;5.93;;;3.72;;
58597;SDS011;60319;46.908;16.848;2022-07-29T17:33:28;7.93;;;4.72;;
58597;SDS011;60319;46.908;16.848;2022-07-29T17:38:29;6.45;;;3.90;;
58597;SDS011;60319;46.908;16.848;2022-07-29T17:43:30;4.50;;;4.13;;
58597;SDS011;60319;46.908;16.848;2022-07-29T17:48:30;5.60;;;3.83;;
58597;SDS011;60319;46.908;16.848;2022-07-29T17:53:31;4.15;;;3.75;;
58597;SDS011;60319;46.908;16.848;2022-07-29T17:58:31;4.10;;;3.67;;
58597;SDS011;60319;46.908;16.848;2022-07-29T18:03:32;3.95;;;3.65;;
58597;SDS011;60319;46.908;16.848;2022-07-29T18:08:33;5.63;;;4.38;;
58597;SDS011;60319;46.908;16.848;2022-07-29T18:13:34;5.75;;;3.85;;
58597;SDS011;60319;46.908;16.848;2022-07-29T18:18:34;6.50;;;4.40;;
58597;SDS011;60319;46.908;16.848;2022-07-29T18:23:35;6.20;;;4.20;;
58597;SDS011;60319;46.908;16.848;2022-07-29T18:28:38;4.13;;;3.72;;
58597;SDS011;60319;46.908;16.848;2022-07-29T18:33:39;4.38;;;4.07;;
58597;SDS011;60319;46.908;16.848;2022-07-29T18:38:39;4.45;;;4.05;;
58597;SDS011;60319;46.908;16.848;2022-07-29T18:43:42;4.70;;;4.15;;
58597;SDS011;60319;46.908;16.848;2022-07-29T18:48:44;4.30;;;4.00;;
58597;SDS011;60319;46.908;16.848;2022-07-29T18:53:44;5.07;;;4.65;;
58597;SDS011;60319;46.908;16.848;2022-07-29T18:58:45;6.47;;;4.72;;
58597;SDS011;60319;46.908;16.848;2022-07-29T19:03:45;4.90;;;4.47;;
58597;SDS011;60319;46.908;16.848;2022-07-29T19:08:46;5.45;;;4.93;;
58597;SDS011;60319;46.908;16.848;2022-07-29T19:13:47;6.05;;;4.40;;
58597;SDS011;60319;46.908;16.848;2022-07-29T19:18:48;5.05;;;4.55;;
58597;SDS011;60319;46.908;16.848;2022-07-29T19:23:49;4.60;;;4.30;;
58597;SDS011;60319;46.908;16.848;2022-07-29T19:28:51;7.10;;;4.20;;
58597;SDS011;60319;46.908;16.848;2022-07-29T19:33:52;8.02;;;4.63;;
58597;SDS011;60319;46.908;16.848;2022-07-29T19:38:52;5.32;;;4.50;;
58597;SDS011;60319;46.908;16.848;2022-07-29T19:43:53;6.70;;;4.60;;
58597;SDS011;60319;46.908;16.848;2022-07-29T19:48:54;5.32;;;4.93;;
58597;SDS011;60319;46.908;16.848;2022-07-29T19:53:55;5.10;;;4.60;;
58597;SDS011;60319;46.908;16.848;2022-07-29T19:58:56;4.45;;;4.05;;
58597;SDS011;60319;46.908;16.848;2022-07-29T20:03:56;4.47;;;4.07;;
58597;SDS011;60319;46.908;16.848;2022-07-29T20:08:57;6.03;;;4.65;;
58597;SDS011;60319;46.908;16.848;2022-07-29T20:13:57;4.75;;;4.35;;
58597;SDS011;60319;46.908;16.848;2022-07-29T20:18:58;5.35;;;4.55;;
58597;SDS011;60319;46.908;16.848;2022-07-29T20:23:58;6.10;;;4.82;;
58597;SDS011;60319;46.908;16.848;2022-07-29T20:29:01;5.72;;;4.90;;
58597;SDS011;60319;46.908;16.848;2022-07-29T20:34:04;5.45;;;4.97;;
58597;SDS011;60319;46.908;16.848;2022-07-29T20:39:05;6.70;;;5.28;;
58597;SDS011;60319;46.908;16.848;2022-07-29T20:44:05;5.43;;;4.93;;
58597;SDS011;60319;46.908;16.848;2022-07-29T20:49:06;5.60;;;5.10;;
58597;SDS011;60319;46.908;16.848;2022-07-29T20:54:07;5.20;;;4.80;;
58597;SDS011;60319;46.908;16.848;2022-07-29T20:59:08;5.80;;;5.30;;
58597;SDS011;60319;46.908;16.848;2022-07-29T21:04:08;5.47;;;4.97;;
58597;SDS011;60319;46.908;16.848;2022-07-29T21:09:09;4.93;;;4.53;;
58597;SDS011;60319;46.908;16.848;2022-07-29T21:14:10;8.07;;;5.00;;
58597;SDS011;60319;46.908;16.848;2022-07-29T21:19:28;6.00;;;5.43;;
58597;SDS011;60319;46.908;16.848;2022-07-29T21:24:28;5.80;;;5.30;;
58597;SDS011;60319;46.908;16.848;2022-07-29T21:29:29;6.65;;;5.30;;
58597;SDS011;60319;46.908;16.848;2022-07-29T21:34:29;4.95;;;4.55;;
58597;SDS011;60319;46.908;16.848;2022-07-29T21:39:30;5.70;;;5.22;;
58597;SDS011;60319;46.908;16.848;2022-07-29T21:44:30;5.38;;;4.88;;
58597;SDS011;60319;46.908;16.848;2022-07-29T21:49:31;5.60;;;5.10;;
58597;SDS011;60319;46.908;16.848;2022-07-29T21:54:31;5.47;;;5.05;;
58597;SDS011;60319;46.908;16.848;2022-07-29T21:59:32;5.82;;;5.32;;
58597;SDS011;60319;46.908;16.848;2022-07-29T22:04:32;5.85;;;5.35;;
58597;SDS011;60319;46.908;16.848;2022-07-29T22:09:34;6.18;;;5.60;;
58597;SDS011;60319;46.908;16.848;2022-07-29T22:14:35;5.50;;;5.10;;
58597;SDS011;60319;46.908;16.848;2022-07-29T22:19:35;6.22;;;5.60;;
58597;SDS011;60319;46.908;16.848;2022-07-29T22:24:36;6.00;;;5.43;;
58597;SDS011;60319;46.908;16.848;2022-07-29T22:29:37;7.18;;;5.28;;
58597;SDS011;60319;46.908;16.848;2022-07-29T22:34:37;6.75;;;5.95;;
58597;SDS011;60319;46.908;16.848;2022-07-29T22:39:38;6.47;;;5.88;;
58597;SDS011;60319;46.908;16.848;2022-07-29T22:44:38;6.85;;;5.70;;
58597;SDS011;60319;46.908;16.848;2022-07-29T22:49:39;7.18;;;5.97;;
58597;SDS011;60319;46.908;16.848;2022-07-29T22:54:39;6.07;;;5.57;;
58597;SDS011;60319;46.908;16.848;2022-07-29T22:59:40;6.55;;;5.95;;
58597;SDS011;60319;46.908;16.848;2022-07-29T23:04:40;5.63;;;5.20;;
58597;SDS011;60319;46.908;16.848;2022-07-29T23:09:41;5.53;;;5.13;;
58597;SDS011;60319;46.908;16.848;2022-07-29T23:14:41;5.68;;;5.10;;
58597;SDS011;60319;46.908;16.848;2022-07-29T23:19:43;5.80;;;5.32;;
58597;SDS011;60319;46.908;16.848;2022-07-29T23:24:43;5.82;;;5.22;;
58597;SDS011;60319;46.908;16.848;2022-07-29T23:29:44;6.82;;;6.22;;
58597;SDS011;60319;46.908;16.848;2022-07-29T23:34:44;9.20;;;5.45;;
58597;SDS011;60319;46.908;16.848;2022-07-29T23:39:45;6.05;;;5.50;;
58597;SDS011;60319;46.908;16.848;2022-07-29T23:44:45;6.07;;;5.57;;
58597;SDS011;60319;46.908;16.848;2022-07-29T23:49:46;5.82;;;5.32;;
58597;SDS011;60319;46.908;16.848;2022-07-29T23:54:48;5.57;;;5.07;;
58597;SDS011;60319;46.908;16.848;2022-07-29T23:59:49;5.82;;;5.22;;
